Time;durP1;ratioP1;P1;durP2;ratioP2;P2;SDS_P1;SDS_P2;PMS_P1;PMS_P2;Temp;Humidity;BMP_temperature;BMP_pressure;BME280_temperature;BME280_humidity;BME280_pressure;Samples;Min_cycle;Max_cycle;Signal;HPM_P1;HPM_P2
2022/03/03 00:00:43;;;;;;;;;;;;;;;0.79;88.48;100186.20;123412;1099;104273;-82
2022/03/03 00:03:31;;;;;;;33.40;16.70;;;;;;;0.79;88.66;100186.20;123308;1099;104424;-81
2022/03/03 00:06:11;;;;;;;33.23;16.83;;;;;;;0.78;88.63;100187.90;123487;1098;104230;-81
2022/03/03 00:11:47;;;;;;;36.00;18.57;;;;;;;0.77;88.46;100180.92;123627;1098;104238;-81
2022/03/03 00:14:19;;;;;;;36.33;18.17;;;;;;;0.77;88.54;100180.05;123932;1099;104274;-82
2022/03/03 00:16:50;;;;;;;37.60;19.13;;;;;;;0.78;88.57;100181.81;124085;1098;104344;-82
2022/03/03 00:19:22;;;;;;;36.50;18.85;;;;;;;0.77;88.71;100173.18;123940;1099;104383;-82
2022/03/03 00:21:55;;;;;;;34.57;17.60;;;;;;;0.77;88.58;100168.02;123923;1096;104262;-81
2022/03/03 00:24:43;;;;;;;35.77;18.23;;;;;;;0.78;88.27;100168.90;123782;1096;104698;-82
2022/03/03 00:27:22;;;;;;;36.33;18.10;;;;;;;0.77;88.58;100173.18;123829;1099;104294;-82
2022/03/03 00:29:53;;;;;;;35.53;18.13;;;;;;;0.80;88.40;100164.76;123382;1099;104876;-82
2022/03/03 00:32:25;;;;;;;39.03;19.50;;;;;;;0.81;88.40;100158.78;123487;1099;104350;-81
2022/03/03 00:34:56;;;;;;;39.63;20.60;;;;;;;0.80;88.62;100154.42;123480;1099;104311;-82
2022/03/03 00:37:28;;;;;;;38.25;20.50;;;;;;;0.82;88.62;100153.72;123581;1099;104399;-80
2022/03/03 00:39:59;;;;;;;40.50;21.13;;;;;;;0.81;88.30;100153.61;123721;1099;104367;-81
2022/03/03 00:42:31;;;;;;;41.93;21.67;;;;;;;0.82;88.38;100145.08;123419;1099;104444;-82
2022/03/03 00:45:03;;;;;;;39.90;20.50;;;;;;;0.80;88.60;100152.73;123442;1099;104441;-82
2022/03/03 00:47:40;;;;;;;41.35;22.10;;;;;;;0.79;88.89;100139.70;123533;1096;104319;-81
2022/03/03 00:50:18;;;;;;;42.23;21.50;;;;;;;0.77;88.75;100147.34;123447;1096;104236;-82
2022/03/03 00:52:52;;;;;;;41.67;21.93;;;;;;;0.78;88.99;100154.32;123419;1096;104360;-82
2022/03/03 00:55:24;;;;;;;42.10;21.13;;;;;;;0.78;88.61;100146.57;123482;1098;104264;-81
2022/03/03 00:57:56;;;;;;;38.70;19.95;;;;;;;0.75;88.52;100141.19;123456;1099;104264;-81
2022/03/03 01:00:28;;;;;;;44.10;21.83;;;;;;;0.75;88.53;100143.78;123473;1099;104373;-82
2022/03/03 01:03:00;;;;;;;35.27;18.83;;;;;;;0.71;88.58;100134.90;123446;1096;104284;-82
2022/03/03 01:05:31;;;;;;;39.80;20.13;;;;;;;0.71;88.92;100137.48;123479;1096;104373;-82
2022/03/03 01:08:04;;;;;;;39.83;21.03;;;;;;;0.72;88.98;100138.40;123397;1096;104772;-82
2022/03/03 01:10:38;;;;;;;40.53;20.10;;;;;;;0.72;88.88;100135.81;123453;1096;104268;-82
2022/03/03 01:13:10;;;;;;;44.17;21.90;;;;;;;0.73;89.35;100136.70;123545;1099;104200;-80
2022/03/03 01:15:42;;;;;;;40.00;20.37;;;;;;;0.71;89.00;100132.31;123402;1098;104398;-81
2022/03/03 01:18:13;;;;;;;42.67;22.37;;;;;;;0.71;89.23;100132.31;123446;1098;104418;-82
2022/03/03 01:20:45;;;;;;;40.10;19.57;;;;;;;0.71;89.73;100136.59;123466;1097;104277;-81
2022/03/03 01:23:19;;;;;;;41.02;20.35;;;;;;;0.70;89.26;100137.38;123447;1096;104265;-84
2022/03/03 01:25:55;;;;;;;43.00;23.27;;;;;;;0.69;89.53;100131.33;123393;1096;104412;-82
2022/03/03 01:28:28;;;;;;;41.03;20.97;;;;;;;0.68;89.06;100126.05;123545;1099;104344;-81
2022/03/03 01:31:01;;;;;;;40.48;22.13;;;;;;;0.68;88.79;100126.05;123631;1096;104344;-81
2022/03/03 01:33:34;;;;;;;41.33;20.67;;;;;;;0.68;89.39;100126.94;123553;1099;105492;-82
2022/03/03 01:36:09;;;;;;;41.35;20.20;;;;;;;0.68;89.54;100126.05;123443;1099;104386;-82
2022/03/03 01:38:41;;;;;;;40.90;20.97;;;;;;;0.70;89.21;100129.63;123448;1099;104389;-82
2022/03/03 01:41:12;;;;;;;44.80;22.87;;;;;;;0.72;89.01;100138.40;123395;1099;104371;-81
2022/03/03 01:43:44;;;;;;;42.25;22.00;;;;;;;0.72;88.98;100125.48;123430;1096;104316;-82
2022/03/03 01:46:16;;;;;;;40.77;20.60;;;;;;;0.74;89.36;100123.01;123423;1098;104370;-83
2022/03/03 01:48:48;;;;;;;42.40;21.37;;;;;;;0.74;88.96;100130.76;123405;1096;104341;-82
2022/03/03 01:51:20;;;;;;;40.93;20.83;;;;;;;0.73;89.66;100127.25;123454;1095;104636;-82
2022/03/03 01:53:51;;;;;;;43.53;22.07;;;;;;;0.71;89.79;100126.27;123459;1096;104268;-81
2022/03/03 01:56:26;;;;;;;39.50;21.17;;;;;;;0.74;90.25;100128.17;123473;1099;104335;-82
2022/03/03 01:58:58;;;;;;;41.10;20.47;;;;;;;0.73;89.34;100127.25;123621;1098;104246;-81
2022/03/03 02:01:35;;;;;;;43.23;22.17;;;;;;;0.72;89.82;100120.32;123443;1097;104290;-81
2022/03/03 02:04:09;;;;;;;40.97;21.20;;;;;;;0.73;89.24;100118.63;123496;1096;104367;-83
2022/03/03 02:06:41;;;;;;;39.83;20.90;;;;;;;0.73;89.91;100119.51;123407;1096;104267;-81
2022/03/03 02:09:12;;;;;;;41.10;21.57;;;;;;;0.74;88.95;100120.42;123443;1099;104341;-83
2022/03/03 02:11:45;;;;;;;40.77;20.93;;;;;;;0.74;89.31;100131.64;123439;1096;104277;-82
2022/03/03 02:14:17;;;;;;;39.70;20.30;;;;;;;0.75;89.67;100124.78;123399;1099;104325;-82
2022/03/03 02:16:48;;;;;;;41.93;22.50;;;;;;;0.73;89.30;100121.20;123418;1098;104357;-82
2022/03/03 02:19:21;;;;;;;39.00;19.93;;;;;;;0.73;88.79;100122.09;123463;1097;104274;-82
2022/03/03 02:21:56;;;;;;;37.70;20.27;;;;;;;0.71;89.25;100121.98;123498;1099;104344;-82
2022/03/03 02:24:27;;;;;;;42.30;21.97;;;;;;;0.71;89.25;100116.81;123398;1096;104392;-82
2022/03/03 02:27:02;;;;;;;40.20;18.77;;;;;;;0.73;89.09;100114.34;123444;1096;104267;-82
2022/03/03 02:29:35;;;;;;;44.43;21.10;;;;;;;0.73;89.20;100110.88;123472;1099;104446;-81
2022/03/03 02:32:09;;;;;;;39.57;20.60;;;;;;;0.69;89.14;100113.25;123437;1096;104245;-83
2022/03/03 02:34:47;;;;;;;44.40;21.17;;;;;;;0.71;89.19;100116.81;123427;1096;104246;-82
2022/03/03 02:37:24;;;;;;;38.57;19.53;;;;;;;0.71;89.42;100118.52;123537;1099;104379;-82
2022/03/03 02:39:59;;;;;;;40.53;21.53;;;;;;;0.69;89.29;100113.25;123444;1098;104242;-83
2022/03/03 02:42:32;;;;;;;45.83;22.80;;;;;;;0.69;89.04;100105.50;123411;1096;104316;-82
2022/03/03 02:45:06;;;;;;;43.60;22.95;;;;;;;0.68;88.89;100106.28;123409;1099;104325;-82
2022/03/03 02:47:46;;;;;;;43.27;22.17;;;;;;;0.68;89.38;100110.56;123464;1096;104368;-82
2022/03/03 02:50:19;;;;;;;43.97;22.80;;;;;;;0.67;89.33;100099.34;123434;1096;104288;-83
2022/03/03 02:52:51;;;;;;;43.37;22.67;;;;;;;0.68;89.51;100100.23;123544;1096;104345;-83
2022/03/03 02:55:24;;;;;;;39.93;21.07;;;;;;;0.67;89.21;100094.18;123401;1099;117836;-82
2022/03/03 02:57:58;;;;;;;39.70;20.83;;;;;;;0.66;89.44;100089.80;123444;1099;104290;-81
2022/03/03 03:00:38;;;;;;;41.20;20.10;;;;;;;0.67;89.29;100096.77;123457;1099;104271;-82
2022/03/03 03:03:10;;;;;;;39.43;19.40;;;;;;;0.68;89.54;100093.37;123413;1099;104300;-83
2022/03/03 03:05:48;;;;;;;43.30;22.07;;;;;;;0.68;89.42;100093.37;123448;1096;104344;-80
2022/03/03 03:08:20;;;;;;;40.40;20.23;;;;;;;0.69;89.24;100094.28;123390;1096;104325;-83
2022/03/03 03:10:54;;;;;;;40.53;20.03;;;;;;;0.70;88.97;100098.64;123397;1096;104341;-82
2022/03/03 03:13:26;;;;;;;37.17;19.37;;;;;;;0.69;89.40;100087.42;123474;1096;104316;-82
2022/03/03 03:15:57;;;;;;;38.03;19.77;;;;;;;0.70;89.74;100086.64;123463;1096;104354;-82
2022/03/03 03:18:29;;;;;;;40.43;19.77;;;;;;;0.70;89.26;100080.56;123454;1099;104762;-82
2022/03/03 03:21:00;;;;;;;38.73;19.17;;;;;;;0.70;89.43;100089.23;123386;1099;104322;-82
2022/03/03 03:23:32;;;;;;;39.90;19.50;;;;;;;0.73;89.55;100085.05;123423;1098;104315;-82
2022/03/03 03:26:04;;;;;;;38.97;19.50;;;;;;;0.75;89.17;100083.45;123424;1096;104313;-81
2022/03/03 03:28:41;;;;;;;39.33;19.23;;;;;;;0.76;89.51;100088.73;123449;1096;104261;-81
2022/03/03 03:31:16;;;;;;;38.97;18.07;;;;;;;0.76;89.37;100086.14;123546;1096;104267;-82
2022/03/03 03:33:51;;;;;;;36.53;18.40;;;;;;;0.77;89.29;100087.95;123655;1096;104380;-82
2022/03/03 03:36:23;;;;;;;36.20;18.80;;;;;;;0.77;89.26;100077.61;123419;1097;108673;-82
2022/03/03 03:39:00;;;;;;;35.60;18.23;;;;;;;0.77;89.42;100082.78;123406;1098;104306;-81
2022/03/03 03:41:31;;;;;;;36.37;19.13;;;;;;;0.77;89.73;100079.31;123466;1098;104239;-83
2022/03/03 03:44:04;;;;;;;37.70;17.93;;;;;;;0.77;88.86;100077.61;123470;1098;104261;-82
2022/03/03 03:46:38;;;;;;;40.73;19.80;;;;;;;0.77;89.16;100075.03;123404;1096;118564;-82
2022/03/03 03:49:11;;;;;;;37.33;18.60;;;;;;;0.79;89.57;100067.39;123400;1098;104453;-83
2022/03/03 03:51:42;;;;;;;39.33;19.03;;;;;;;0.79;89.26;100067.39;123456;1097;104235;-82
2022/03/03 03:54:15;;;;;;;39.37;18.27;;;;;;;0.79;89.87;100072.55;123410;1099;104411;-83
2022/03/03 03:56:53;;;;;;;38.90;18.73;;;;;;;0.77;89.42;100072.45;123504;1099;104418;-82
2022/03/03 03:59:24;;;;;;;34.43;17.43;;;;;;;0.77;89.55;100076.73;123422;1099;104355;-81
2022/03/03 04:01:56;;;;;;;40.27;19.67;;;;;;;0.77;89.38;100075.03;123495;1099;104306;-82
2022/03/03 04:04:28;;;;;;;37.37;18.83;;;;;;;0.76;89.32;100075.81;123457;1099;104163;-84
2022/03/03 04:07:03;;;;;;;37.13;18.17;;;;;;;0.75;89.29;100076.62;123442;1099;104456;-83
2022/03/03 04:09:34;;;;;;;37.87;18.97;;;;;;;0.75;89.31;100067.95;123421;1099;104687;-83
2022/03/03 04:12:07;;;;;;;36.67;17.97;;;;;;;0.75;89.60;100079.20;123481;1099;104472;-83
2022/03/03 04:14:38;;;;;;;36.03;16.93;;;;;;;0.72;89.53;100076.42;124053;1099;104344;-81
2022/03/03 04:17:10;;;;;;;36.57;18.63;;;;;;;0.70;89.52;100071.14;124063;1099;104401;-82
2022/03/03 04:19:41;;;;;;;37.37;18.27;;;;;;;0.70;89.70;100072.81;124027;1099;104351;-82
2022/03/03 04:22:13;;;;;;;31.80;15.83;;;;;;;0.71;89.58;100072.03;124142;1099;104355;-83
2022/03/03 04:24:44;;;;;;;38.87;19.57;;;;;;;0.71;89.97;100075.50;124035;1099;104505;-83
2022/03/03 04:27:15;;;;;;;35.60;17.70;;;;;;;0.71;89.67;100070.33;124076;1096;104273;-82
2022/03/03 04:29:49;;;;;;;36.53;17.83;;;;;;;0.70;89.17;100068.56;123509;1096;104341;-84
2022/03/03 04:32:21;;;;;;;34.00;15.80;;;;;;;0.71;90.00;100065.17;123404;1096;104316;-84
2022/03/03 04:34:52;;;;;;;35.43;17.47;;;;;;;0.72;89.55;100066.09;123396;1096;104645;-82
2022/03/03 04:37:24;;;;;;;36.87;18.13;;;;;;;0.72;90.21;100060.92;123426;1096;104312;-83
2022/03/03 04:39:55;;;;;;;34.90;16.83;;;;;;;0.74;90.11;100063.61;123398;1099;104360;-82
2022/03/03 04:42:27;;;;;;;35.70;17.37;;;;;;;0.74;90.14;100061.02;123446;1097;104267;-83
2022/03/03 04:44:58;;;;;;;36.40;17.50;;;;;;;0.74;89.62;100064.49;123382;1097;104938;-83
2022/03/03 04:47:30;;;;;;;35.30;17.57;;;;;;;0.74;89.73;100055.86;123446;1096;104360;-83
2022/03/03 04:50:03;;;;;;;34.17;17.23;;;;;;;0.75;89.81;100057.63;123416;1096;104657;-84
2022/03/03 04:52:35;;;;;;;34.90;17.30;;;;;;;0.76;89.97;100062.02;123417;1096;104356;-83
2022/03/03 04:55:08;;;;;;;36.90;17.20;;;;;;;0.76;89.81;100067.17;123700;1096;104267;-80
2022/03/03 04:57:40;;;;;;;35.80;18.37;;;;;;;0.74;89.79;100064.49;123594;1096;104460;-82
2022/03/03 05:00:15;;;;;;;37.57;17.67;;;;;;;0.73;89.87;100056.64;123814;1099;104460;-84
2022/03/03 05:02:49;;;;;;;34.70;16.70;;;;;;;0.73;89.85;100067.86;123522;1098;104245;-82
2022/03/03 05:05:29;;;;;;;35.23;16.93;;;;;;;0.71;90.08;100065.17;123411;1099;104345;-81
2022/03/03 05:08:05;;;;;;;34.10;17.50;;;;;;;0.73;90.14;100064.39;123529;1096;104310;-82
2022/03/03 05:10:38;;;;;;;35.93;16.97;;;;;;;0.73;89.92;100061.80;123585;1096;104360;-82
2022/03/03 05:13:10;;;;;;;37.35;18.85;;;;;;;0.69;89.91;100064.17;124161;1096;104241;-81
2022/03/03 05:15:41;;;;;;;37.67;17.43;;;;;;;0.68;89.90;100064.08;124003;1096;104245;-81
2022/03/03 05:18:13;;;;;;;37.17;18.23;;;;;;;0.66;89.76;100061.39;123943;1096;104325;-80
2022/03/03 05:20:44;;;;;;;38.03;19.07;;;;;;;0.65;90.44;100059.59;123782;1099;104354;-81
2022/03/03 05:23:16;;;;;;;39.15;19.85;;;;;;;0.66;90.15;100060.50;123827;1099;104261;-81
2022/03/03 05:25:47;;;;;;;42.30;20.60;;;;;;;0.68;90.25;100064.96;123725;1099;104744;-82
2022/03/03 05:28:21;;;;;;;35.90;18.32;;;;;;;0.73;90.24;100064.39;123955;1096;104216;-81
2022/03/03 05:30:52;;;;;;;34.93;17.57;;;;;;;0.76;90.34;100062.02;123819;1096;104243;-81
2022/03/03 05:33:24;;;;;;;35.83;17.40;;;;;;;0.79;90.31;100064.80;123842;1099;104300;-79
2022/03/03 05:36:00;;;;;;;35.17;17.23;;;;;;;0.81;90.23;100058.96;123658;1096;104293;-80
2022/03/03 05:38:35;;;;;;;31.50;16.67;;;;;;;0.84;90.26;100060.83;123784;1096;104235;-81
2022/03/03 05:41:07;;;;;;;35.53;16.87;;;;;;;0.89;90.28;100065.53;123690;1099;104306;-81
2022/03/03 05:43:40;;;;;;;36.67;17.93;;;;;;;0.94;90.36;100068.42;123765;1099;104171;-81
2022/03/03 05:46:11;;;;;;;33.40;16.10;;;;;;;0.99;90.67;100066.14;123616;1099;104277;-80
2022/03/03 05:48:43;;;;;;;34.40;16.77;;;;;;;1.02;90.33;100066.35;123422;1096;104242;-81
2022/03/03 05:51:15;;;;;;;36.43;18.53;;;;;;;1.04;90.27;100064.75;123575;1098;104374;-80
2022/03/03 05:53:47;;;;;;;38.27;19.00;;;;;;;1.06;90.40;100068.32;123481;1096;104344;-81
2022/03/03 05:56:20;;;;;;;39.50;19.20;;;;;;;1.09;90.67;100068.53;123691;1096;104280;-80
2022/03/03 05:58:54;;;;;;;42.70;20.73;;;;;;;1.11;90.45;100071.21;123727;1096;104261;-81
2022/03/03 06:01:27;;;;;;;39.03;21.33;;;;;;;1.12;90.11;100070.43;124108;1098;104280;-79
2022/03/03 06:04:01;;;;;;;47.30;25.77;;;;;;;1.10;90.33;100075.50;123838;1099;104345;-80
2022/03/03 06:06:36;;;;;;;47.03;25.50;;;;;;;1.09;90.37;100073.70;123926;1099;104318;-79
2022/03/03 06:09:10;;;;;;;44.80;23.87;;;;;;;1.10;90.15;100075.50;123640;1096;104332;-81
2022/03/03 06:11:48;;;;;;;36.57;20.40;;;;;;;1.10;90.69;100078.08;123951;1096;104257;-80
2022/03/03 06:14:31;;;;;;;38.97;21.57;;;;;;;1.10;89.91;100077.20;123798;1099;104226;-79
2022/03/03 06:17:03;;;;;;;38.83;20.60;;;;;;;1.09;90.06;100073.70;123856;1099;104332;-80
2022/03/03 06:19:41;;;;;;;36.50;18.43;;;;;;;1.10;90.15;100070.33;123865;1099;104251;-80
2022/03/03 06:22:13;;;;;;;37.40;19.10;;;;;;;1.12;89.97;100073.90;124265;1097;104220;-80
2022/03/03 06:24:44;;;;;;;36.40;17.43;;;;;;;1.12;89.81;100068.73;123869;1099;104310;-80
2022/03/03 06:27:16;;;;;;;36.17;18.27;;;;;;;1.14;89.72;100074.92;123793;1098;104631;-80
2022/03/03 06:29:48;;;;;;;33.37;17.07;;;;;;;1.16;90.00;100068.16;124362;1099;104201;-80
2022/03/03 06:32:22;;;;;;;36.20;17.90;;;;;;;1.20;89.86;100074.41;124200;1096;104216;-79
2022/03/03 06:34:54;;;;;;;36.97;18.13;;;;;;;1.21;90.00;100065.88;124458;1099;104256;-79
2022/03/03 06:37:28;;;;;;;31.07;14.93;;;;;;;1.25;90.54;100070.45;123938;1096;104255;-82
2022/03/03 06:40:04;;;;;;;31.77;14.33;;;;;;;1.27;90.10;100065.39;124286;1099;110879;-80
2022/03/03 06:42:38;;;;;;;31.47;15.20;;;;;;;1.28;89.94;100070.66;124102;1099;104229;-83
2022/03/03 06:45:21;;;;;;;27.67;13.50;;;;;;;1.30;90.24;100071.65;125168;1099;104262;-81
2022/03/03 06:47:54;;;;;;;30.20;14.30;;;;;;;1.32;89.99;100063.99;124842;1099;104443;-81
2022/03/03 06:50:33;;;;;;;30.60;15.37;;;;;;;1.32;89.97;100074.33;124471;1098;104216;-81
2022/03/03 06:53:09;;;;;;;28.70;13.73;;;;;;;1.33;90.18;100064.09;124196;1099;104230;-81
2022/03/03 06:55:50;;;;;;;30.37;14.13;;;;;;;1.35;90.17;100062.49;125008;1099;104331;-82
2022/03/03 06:58:40;;;;;;;26.20;12.50;;;;;;;1.35;90.09;100071.95;124738;1099;104323;-83
2022/03/03 07:01:16;;;;;;;31.13;14.07;;;;;;;1.37;90.24;100066.09;124752;1099;104300;-82
2022/03/03 07:03:51;;;;;;;31.30;15.13;;;;;;;1.37;89.96;100071.27;123742;1099;104430;-80
2022/03/03 07:06:27;;;;;;;29.23;14.30;;;;;;;1.36;89.87;100069.47;123600;1099;104424;-80
2022/03/03 07:09:02;;;;;;;32.00;16.57;;;;;;;1.37;90.43;100066.09;123403;1099;104428;-80
2022/03/03 07:11:43;;;;;;;33.47;18.57;;;;;;;1.39;89.80;100073.95;123930;1099;104373;-81
2022/03/03 07:14:21;;;;;;;38.63;20.97;;;;;;;1.40;89.97;100068.88;123955;1099;104369;-80
2022/03/03 07:17:06;;;;;;;41.57;23.47;;;;;;;1.47;89.82;100070.16;124951;1099;105162;-81
2022/03/03 07:19:56;;;;;;;40.00;23.23;;;;;;;1.49;89.91;100070.27;124397;1099;104267;-80
2022/03/03 07:22:37;;;;;;;42.57;24.30;;;;;;;1.51;89.97;100073.83;124136;1099;104255;-79
2022/03/03 07:25:17;;;;;;;43.33;23.20;;;;;;;1.53;90.54;100072.27;125109;1099;104408;-82
2022/03/03 07:28:05;;;;;;;38.90;20.50;;;;;;;1.55;90.16;100074.13;124824;1099;104450;-80
2022/03/03 07:30:49;;;;;;;33.83;18.47;;;;;;;1.57;89.96;100077.73;124815;1096;104318;-81
2022/03/03 07:33:42;;;;;;;31.97;16.07;;;;;;;1.58;90.45;100081.20;124586;1096;104418;-83
2022/03/03 07:36:27;;;;;;;32.43;15.50;;;;;;;1.59;90.13;100080.39;124971;1096;104219;-80
2022/03/03 07:39:04;;;;;;;30.60;15.13;;;;;;;1.63;89.83;100077.22;124331;1096;104350;-79
2022/03/03 07:41:37;;;;;;;30.33;15.70;;;;;;;1.67;89.83;100081.80;124649;1099;108080;-80
2022/03/03 07:44:40;;;;;;;29.83;14.77;;;;;;;1.71;89.84;100082.88;125066;1099;104236;-81
2022/03/03 07:47:29;;;;;;;27.80;14.07;;;;;;;1.72;89.83;100082.09;125297;1099;104333;-79
2022/03/03 07:50:17;;;;;;;28.07;14.83;;;;;;;1.75;90.12;100082.30;124358;1099;104213;-79
2022/03/03 07:53:09;;;;;;;30.65;15.60;;;;;;;1.83;89.51;100080.20;124614;1096;104501;-81
2022/03/03 07:56:02;;;;;;;31.40;16.27;;;;;;;1.89;90.23;100073.71;124824;1099;104734;-79
2022/03/03 07:58:45;;;;;;;34.30;17.63;;;;;;;1.93;90.10;100072.20;124640;1098;104349;-79
2022/03/03 08:01:22;;;;;;;33.20;17.63;;;;;;;2.01;89.81;100068.42;124392;1096;104264;-81
2022/03/03 08:04:17;;;;;;;30.40;15.53;;;;;;;2.05;89.69;100070.39;124264;1099;104299;-81
2022/03/03 08:07:09;;;;;;;30.20;15.45;;;;;;;2.07;89.44;100062.72;124053;1099;104370;-83
2022/03/03 08:09:51;;;;;;;28.77;14.90;;;;;;;2.11;89.75;100063.01;124430;1096;104214;-80
2022/03/03 08:12:32;;;;;;;27.83;14.53;;;;;;;2.20;89.65;100066.95;124498;1098;104355;-81
2022/03/03 08:15:07;;;;;;;23.73;11.70;;;;;;;2.20;89.71;100064.37;124574;1099;104929;-79
2022/03/03 08:17:57;;;;;;;27.33;14.27;;;;;;;2.22;89.48;100062.79;124559;1099;104217;-81
2022/03/03 08:20:41;;;;;;;27.77;14.57;;;;;;;2.30;90.49;100064.15;124666;1099;105081;-79
2022/03/03 08:23:14;;;;;;;29.90;15.73;;;;;;;2.30;89.51;100057.27;123829;1098;104278;-82
2022/03/03 08:25:54;;;;;;;27.30;13.90;;;;;;;2.31;89.85;100053.89;124125;1096;104204;-81
2022/03/03 08:28:36;;;;;;;29.77;15.90;;;;;;;2.34;89.66;100053.19;124353;1099;104402;-82
2022/03/03 08:31:15;;;;;;;28.13;14.70;;;;;;;2.43;89.88;100048.58;124492;1099;104344;-79
2022/03/03 08:33:56;;;;;;;26.97;14.00;;;;;;;2.44;89.50;100060.70;123799;1099;118987;-79
2022/03/03 08:36:45;;;;;;;26.50;12.63;;;;;;;2.39;89.56;100046.59;124075;1099;104408;-83
2022/03/03 08:39:42;;;;;;;26.90;13.33;;;;;;;2.43;89.62;100050.25;123757;1099;104399;-82
2022/03/03 08:42:23;;;;;;;28.63;12.73;;;;;;;2.50;89.53;100045.53;124369;1099;104348;-82
2022/03/03 08:45:10;;;;;;;22.80;11.43;;;;;;;2.48;89.83;100044.56;124427;1099;104229;-80
2022/03/03 08:47:46;;;;;;;24.37;11.57;;;;;;;2.45;89.49;100041.78;123931;1099;104345;-81
2022/03/03 08:50:35;;;;;;;23.17;11.73;;;;;;;2.46;89.43;100042.66;124091;1099;104371;-79
2022/03/03 08:53:12;;;;;;;24.13;11.87;;;;;;;2.48;89.02;100041.97;124293;1099;104348;-80
2022/03/03 08:55:55;;;;;;;25.20;11.93;;;;;;;2.49;89.57;100046.36;123778;1099;104403;-80
2022/03/03 08:58:27;;;;;;;;;;;;;;;2.53;89.85;100043.95;124469;1099;104357;-80
2022/03/03 09:01:01;;;;;;;24.97;11.70;;;;;;;2.59;89.24;100041.73;124366;1099;104360;-78
2022/03/03 09:03:36;;;;;;;22.20;11.10;;;;;;;2.63;89.13;100046.28;123819;1096;104239;-78
2022/03/03 09:06:14;;;;;;;22.17;11.33;;;;;;;2.64;89.04;100045.48;123948;1096;104318;-78
2022/03/03 09:08:48;;;;;;;21.63;10.43;;;;;;;2.64;89.06;100046.38;124220;1098;104267;-79
2022/03/03 09:11:22;;;;;;;23.97;11.73;;;;;;;2.68;89.04;100050.03;123927;1096;104333;-79
2022/03/03 09:13:54;;;;;;;21.73;10.03;;;;;;;2.78;89.41;100052.38;124037;1096;104791;-79
2022/03/03 09:16:36;;;;;;;22.60;10.80;;;;;;;2.80;89.42;100053.35;124376;1099;104438;-80
2022/03/03 09:19:14;;;;;;;19.93;9.50;;;;;;;2.78;88.37;100056.67;123736;1098;104220;-79
2022/03/03 09:21:47;;;;;;;20.37;8.70;;;;;;;2.72;89.11;100057.19;123655;1099;104270;-79
2022/03/03 09:24:24;;;;;;;19.25;9.40;;;;;;;2.65;88.62;100068.89;124000;1099;104220;-80
2022/03/03 09:26:56;;;;;;;20.93;10.33;;;;;;;2.59;89.02;100065.93;123811;1099;104261;-80
2022/03/03 09:29:34;;;;;;;20.53;9.33;;;;;;;2.63;89.03;100061.82;123551;1096;104319;-80
2022/03/03 09:32:10;;;;;;;20.80;9.50;;;;;;;2.63;89.32;100057.55;124155;1099;104698;-79
2022/03/03 09:34:43;;;;;;;21.33;9.83;;;;;;;2.65;88.99;100062.80;123674;1099;104342;-79
2022/03/03 09:37:13;;;;;;;;;;;;;;;2.65;89.43;100062.80;124642;1099;104265;-79
2022/03/03 09:39:52;;;;;;;24.00;12.70;;;;;;;2.65;89.48;100057.61;124135;1099;104389;-80
2022/03/03 09:42:33;;;;;;;25.03;12.73;;;;;;;2.68;88.79;100056.12;124351;1099;104379;-80
2022/03/03 09:45:10;;;;;;;23.10;11.47;;;;;;;2.67;89.18;100058.63;123631;1099;104242;-80
2022/03/03 09:47:48;;;;;;;24.00;11.37;;;;;;;2.62;88.84;100052.28;123485;1096;104310;-78
2022/03/03 09:50:25;;;;;;;23.25;11.50;;;;;;;2.63;89.61;100061.82;123779;1095;104268;-79
2022/03/03 09:53:01;;;;;;;22.90;11.73;;;;;;;2.63;89.38;100059.23;124516;1096;104381;-81
2022/03/03 09:55:37;;;;;;;23.53;11.57;;;;;;;2.67;89.00;100058.63;124457;1099;108277;-78
2022/03/03 09:58:14;;;;;;;23.20;11.07;;;;;;;2.66;89.19;100065.48;124108;1099;104718;-78
2022/03/03 10:00:52;;;;;;;21.15;10.40;;;;;;;2.63;88.83;100061.82;123781;1099;104421;-79
2022/03/03 10:03:38;;;;;;;23.40;11.70;;;;;;;2.58;88.82;100058.06;125140;1098;104259;-79
2022/03/03 10:06:27;;;;;;;22.90;12.07;;;;;;;2.61;89.50;100058.25;124168;1099;104233;-81
2022/03/03 10:09:05;;;;;;;22.50;10.63;;;;;;;2.69;89.54;100051.83;124515;1099;104263;-79
2022/03/03 10:12:01;;;;;;;24.20;11.93;;;;;;;2.74;89.10;100060.76;124242;1099;104246;-80
2022/03/03 10:14:41;;;;;;;23.13;11.50;;;;;;;2.76;89.80;100047.89;124631;1096;104290;-80
2022/03/03 10:17:13;;;;;;;22.90;11.57;;;;;;;2.83;89.36;100053.53;124499;1099;104193;-79
2022/03/03 10:20:02;;;;;;;20.77;10.57;;;;;;;2.92;89.04;100055.79;124237;1096;104280;-80
2022/03/03 10:22:46;;;;;;;23.73;11.03;;;;;;;2.91;89.19;100053.11;124282;1096;104364;-79
2022/03/03 10:25:32;;;;;;;21.97;11.30;;;;;;;2.86;89.06;100053.72;124231;1099;104274;-79
2022/03/03 10:28:21;;;;;;;22.30;11.17;;;;;;;2.88;89.07;100049.54;124638;1099;104246;-79
2022/03/03 10:31:15;;;;;;;21.90;10.33;;;;;;;2.85;89.47;100049.36;124791;1099;104240;-78
2022/03/03 10:33:56;;;;;;;25.20;10.85;;;;;;;2.85;89.02;100049.36;124497;1099;104245;-79
2022/03/03 10:36:39;;;;;;;19.97;9.80;;;;;;;2.75;88.55;100048.72;124250;1096;108111;-80
2022/03/03 10:39:27;;;;;;;22.03;10.83;;;;;;;2.70;89.34;100048.45;124459;1096;104367;-79
2022/03/03 10:42:28;;;;;;;21.87;11.00;;;;;;;2.65;88.84;100055.02;124502;1096;104354;-80
2022/03/03 10:45:11;;;;;;;23.73;11.00;;;;;;;2.61;89.24;100053.07;124405;1099;104293;-79
2022/03/03 10:47:46;;;;;;;22.93;11.27;;;;;;;2.60;89.19;100044.42;124146;1099;104396;-78
2022/03/03 10:50:18;;;;;;;24.10;11.43;;;;;;;2.58;88.56;100040.82;124842;1099;104275;-78
2022/03/03 10:53:13;;;;;;;23.33;11.57;;;;;;;2.60;88.98;100047.01;123903;1099;104319;-79
2022/03/03 10:56:03;;;;;;;;;;;;;;;2.66;88.96;100034.39;124241;1096;104272;-80
2022/03/03 10:58:57;;;;;;;22.37;10.90;;;;;;;2.76;88.57;100035.86;124271;1096;104344;-81
2022/03/03 11:01:32;;;;;;;23.15;11.18;;;;;;;2.78;88.55;100036.83;124309;1096;104345;-80
2022/03/03 11:04:29;;;;;;;22.73;11.63;;;;;;;2.80;87.80;100031.73;124302;1096;104313;-80
2022/03/03 11:07:07;;;;;;;25.00;11.97;;;;;;;2.78;88.32;100036.83;124844;1098;104265;-78
2022/03/03 11:09:52;;;;;;;23.43;11.20;;;;;;;2.78;88.25;100029.05;125230;1099;104281;-81
2022/03/03 11:12:31;;;;;;;26.10;12.43;;;;;;;2.79;88.26;100035.12;125675;1099;102008;-82
2022/03/03 11:15:10;;;;;;;24.47;12.23;;;;;;;2.78;88.34;100034.23;124889;1099;104376;-82
2022/03/03 11:17:48;;;;;;;24.23;12.43;;;;;;;2.76;88.13;100030.67;125044;1099;107032;-81
2022/03/03 11:20:24;;;;;;;26.30;12.83;;;;;;;2.75;88.37;100025.41;124876;1099;104281;-79
2022/03/03 11:23:02;;;;;;;26.40;12.77;;;;;;;2.74;88.28;100024.48;125199;1097;104258;-79
2022/03/03 11:25:37;;;;;;;27.33;14.10;;;;;;;2.74;88.89;100033.97;125050;1099;104232;-81
2022/03/03 11:28:14;;;;;;;26.07;13.10;;;;;;;2.73;88.16;100033.08;125255;1099;102645;-80
2022/03/03 11:30:48;;;;;;;27.13;13.43;;;;;;;2.68;87.93;100034.48;124999;1099;104386;-79
2022/03/03 11:33:26;;;;;;;25.13;12.90;;;;;;;2.62;88.03;100029.84;124767;1099;104277;-79
2022/03/03 11:36:03;;;;;;;30.47;14.30;;;;;;;2.58;87.93;100034.75;124419;1099;104344;-78
2022/03/03 11:38:52;;;;;;;26.97;13.33;;;;;;;2.59;87.84;100024.48;124677;1099;104246;-78
2022/03/03 11:41:44;;;;;;;27.63;14.13;;;;;;;2.60;88.08;100030.55;123871;1099;104357;-78
2022/03/03 11:44:31;;;;;;;29.07;14.20;;;;;;;2.59;88.22;100033.97;124202;1099;104325;-79
2022/03/03 11:47:19;;;;;;;27.60;13.77;;;;;;;2.58;87.70;100030.45;124421;1099;104194;-78